Main page
METAR-TAF:

METAR-TAF

Airports :

Chhatrapati Shivaji International Airport

Mumbai, India

latitude: 19-07N, longitude: 072-51E, elevation: 8 m

Current weather observation

The report was made 16 minutes ago, at 08:00 UTC
Wind 7 kt from the North/Northwest
Temperature 29°C
Humidity 55%
Pressure 1012 hPa
Visibility: 4000 m
Scattered clouds at a height of 2000 ft
smoke

METAR: VABB 130800Z 33007KT 4000 FU SCT020 29/19 Q1012 NOSIG

Time: 13:46 (08:16 UTC)

Forecast

The report was made 3 hours and 16 minutes ago, at 05:00 UTC
Forecast valid from 13 at 06 UTC to 13 at 15 UTC
Wind 10 kt from the West
Visibility: 3000 m
Few clouds at a height of 10000 ft
smoke

TAF: VABB 130500Z 1306/1315 27010KT 3000 FU FEW100

Weather observations and forecasts of more than 4000 airports (METAR and TAF reports).

The available stations are represented by yellow and red dots on the map.

Hover mouse over dot to see the name of the station.

Then click to see weather observations and forecasts.

To change the map : click on the green buttons with a black cross to zoom in, on the green button with a dash to zoom out, or on the green arrows for adjacent maps.


METAR-TAF: